createdAt,value
2022-10-20T00:02:06.135Z,7.79
2022-10-20T00:04:32.618Z,7.84
2022-10-20T00:06:58.978Z,7.73
2022-10-20T00:09:25.347Z,7.73
2022-10-20T00:11:51.721Z,7.75
2022-10-20T00:14:18.083Z,7.79
2022-10-20T00:16:44.454Z,7.66
2022-10-20T00:19:11.876Z,7.60
2022-10-20T00:21:38.232Z,7.69
2022-10-20T00:24:04.653Z,7.66
2022-10-20T00:26:31.815Z,7.68
2022-10-20T00:28:58.553Z,7.64
2022-10-20T00:31:25.531Z,7.66
2022-10-20T00:33:52.211Z,7.70
2022-10-20T00:36:20.663Z,7.59
2022-10-20T00:38:47.174Z,7.67
2022-10-20T00:41:15.507Z,7.69
2022-10-20T00:43:52.408Z,7.63
2022-10-20T00:46:24.487Z,7.73
2022-10-20T00:48:54.188Z,7.72
2022-10-20T00:51:23.688Z,7.67
2022-10-20T00:53:51.767Z,7.61
2022-10-20T00:56:18.169Z,7.71
2022-10-20T00:58:44.707Z,7.73
2022-10-20T01:01:11.581Z,7.75
2022-10-20T01:03:48.249Z,7.70
2022-10-20T01:08:50.107Z,7.57
2022-10-20T01:11:28.543Z,7.68
2022-10-20T01:14:18.267Z,7.63
2022-10-20T01:17:04.223Z,7.52
2022-10-20T01:19:55.601Z,7.54
2022-10-20T01:22:43.484Z,7.54
2022-10-20T01:25:15.732Z,7.74
2022-10-20T01:27:42.356Z,7.62
2022-10-20T01:30:12.393Z,7.70
2022-10-20T01:33:06.880Z,7.62
2022-10-20T01:35:45.077Z,7.61
2022-10-20T01:38:26.416Z,7.55
2022-10-20T01:41:25.504Z,7.66
2022-10-20T01:43:52.576Z,7.69
2022-10-20T01:46:21.824Z,7.58
2022-10-20T01:48:48.545Z,7.55
2022-10-20T01:51:14.936Z,7.61
2022-10-20T01:53:41.495Z,7.54
2022-10-20T01:56:16.599Z,7.52
2022-10-20T01:59:07.048Z,7.51
2022-10-20T02:01:52.718Z,7.47
2022-10-20T02:04:26.523Z,7.51
2022-10-20T02:06:57.583Z,7.35
2022-10-20T02:09:31.781Z,7.44
2022-10-20T02:12:02.412Z,7.50
2022-10-20T02:14:29.705Z,7.50
2022-10-20T02:17:02.809Z,7.45
2022-10-20T02:19:32.216Z,7.48
2022-10-20T02:21:58.634Z,7.45
2022-10-20T02:24:27.969Z,7.52
2022-10-20T02:26:55.820Z,7.52
2022-10-20T02:29:25.959Z,7.55
2022-10-20T02:31:52.337Z,7.58
2022-10-20T02:34:18.679Z,7.51
2022-10-20T02:36:45.391Z,7.44
2022-10-20T02:39:12.293Z,7.51
2022-10-20T02:41:38.725Z,7.60
2022-10-20T02:44:05.321Z,7.52
2022-10-20T02:46:31.725Z,7.55
2022-10-20T02:48:58.109Z,7.60
2022-10-20T02:51:24.530Z,7.60
2022-10-20T02:53:51.017Z,7.63
2022-10-20T02:56:17.408Z,7.61
2022-10-20T02:58:43.881Z,7.56
2022-10-20T03:01:10.382Z,7.50
2022-10-20T03:03:36.811Z,7.54
2022-10-20T03:06:15.148Z,7.51
2022-10-20T03:08:41.924Z,7.43
2022-10-20T03:11:08.590Z,7.50
2022-10-20T03:13:34.985Z,7.41
2022-10-20T03:16:02.019Z,7.38
2022-10-20T03:18:28.387Z,7.41
2022-10-20T03:20:54.894Z,7.49
2022-10-20T03:23:21.493Z,7.60
2022-10-20T03:25:48.352Z,7.41
2022-10-20T03:28:14.760Z,7.55
2022-10-20T03:30:41.112Z,7.41
2022-10-20T03:33:07.517Z,7.43
2022-10-20T03:35:33.879Z,7.38
2022-10-20T03:38:00.291Z,7.35
2022-10-20T03:40:26.707Z,7.35
2022-10-20T03:42:53.064Z,7.32
2022-10-20T03:45:19.421Z,7.41
2022-10-20T03:47:45.859Z,7.44
2022-10-20T03:50:12.608Z,7.42
2022-10-20T03:52:39.253Z,7.42
2022-10-20T03:55:05.985Z,7.57
2022-10-20T03:57:32.373Z,7.61
2022-10-20T03:59:58.757Z,7.50
2022-10-20T04:02:37.664Z,7.48
2022-10-20T04:05:05.239Z,7.37
2022-10-20T04:07:31.868Z,7.41
2022-10-20T04:09:58.372Z,7.45
2022-10-20T04:12:24.913Z,7.48
2022-10-20T04:14:51.581Z,7.40
2022-10-20T04:17:18.357Z,7.26
2022-10-20T04:19:44.931Z,7.45
2022-10-20T04:22:11.292Z,7.39
2022-10-20T04:24:37.639Z,7.39
2022-10-20T04:27:04.194Z,7.49
2022-10-20T04:29:30.706Z,7.61
2022-10-20T04:31:57.240Z,7.61
2022-10-20T04:34:23.798Z,7.58
2022-10-20T04:36:50.175Z,7.55
2022-10-20T04:39:17.290Z,7.56
2022-10-20T04:41:43.638Z,7.58
2022-10-20T04:44:10.008Z,7.53
2022-10-20T04:46:36.360Z,7.38
2022-10-20T04:49:02.735Z,7.43
2022-10-20T04:51:29.090Z,7.40
2022-10-20T04:53:55.494Z,7.49
2022-10-20T04:56:22.257Z,7.61
2022-10-20T04:58:52.434Z,7.64
2022-10-20T05:01:19.371Z,7.48
2022-10-20T05:03:45.831Z,7.37
2022-10-20T05:06:17.801Z,7.33
2022-10-20T05:08:46.584Z,7.37
2022-10-20T05:11:13.659Z,7.41
2022-10-20T05:13:40.037Z,7.42
2022-10-20T05:16:06.889Z,7.48
2022-10-20T05:18:34.272Z,7.35
2022-10-20T05:21:08.743Z,7.46
2022-10-20T05:23:36.334Z,7.53
2022-10-20T05:26:04.309Z,7.51
2022-10-20T05:28:30.734Z,7.53
2022-10-20T05:31:00.623Z,7.48
2022-10-20T05:33:28.124Z,7.47
2022-10-20T05:35:54.494Z,7.59
2022-10-20T05:38:20.886Z,7.59
2022-10-20T05:40:47.246Z,7.49
2022-10-20T05:43:15.874Z,7.48
2022-10-20T05:45:42.480Z,7.50
2022-10-20T05:48:08.867Z,7.48
2022-10-20T05:50:35.362Z,7.45
2022-10-20T05:53:01.847Z,7.52
2022-10-20T05:55:28.205Z,7.60
2022-10-20T05:57:55.347Z,7.58
2022-10-20T06:00:30.012Z,7.71
2022-10-20T06:02:57.825Z,7.63
2022-10-20T06:05:24.218Z,7.73
2022-10-20T06:07:53.286Z,7.81
2022-10-20T06:10:19.649Z,7.69
2022-10-20T06:12:46.111Z,7.63
2022-10-20T06:15:12.595Z,7.60
2022-10-20T06:17:38.969Z,7.59
2022-10-20T06:20:05.650Z,7.71
2022-10-20T06:22:32.027Z,7.69
2022-10-20T06:24:58.386Z,7.78
2022-10-20T06:27:24.749Z,7.72
2022-10-20T06:29:51.320Z,7.78
2022-10-20T06:32:20.553Z,7.84
2022-10-20T06:34:46.991Z,7.91
2022-10-20T06:37:13.443Z,7.74
2022-10-20T06:39:39.852Z,7.81
2022-10-20T06:42:09.625Z,7.94
2022-10-20T06:44:38.490Z,7.96
2022-10-20T06:47:07.519Z,8.10
2022-10-20T06:49:33.872Z,7.99
2022-10-20T06:52:00.301Z,7.94
2022-10-20T06:54:26.716Z,8.05
2022-10-20T06:56:53.070Z,8.06
2022-10-20T06:59:19.464Z,8.10
2022-10-20T07:01:45.875Z,8.24
2022-10-20T07:04:15.398Z,8.26
2022-10-20T07:06:43.530Z,8.27
2022-10-20T07:09:14.174Z,8.28
2022-10-20T07:11:41.215Z,8.34
2022-10-20T07:14:07.563Z,8.21
2022-10-20T07:16:34.879Z,8.36
2022-10-20T07:19:02.714Z,8.38
2022-10-20T07:21:34.445Z,8.36
2022-10-20T07:24:04.637Z,8.50
2022-10-20T07:26:33.099Z,8.57
2022-10-20T07:29:01.094Z,8.62
2022-10-20T07:31:31.907Z,8.74
2022-10-20T07:34:06.801Z,8.81
2022-10-20T07:36:42.324Z,8.79
2022-10-20T07:39:08.702Z,8.79
2022-10-20T07:41:37.308Z,8.72
2022-10-20T07:44:04.544Z,8.90
2022-10-20T07:46:31.064Z,8.94
2022-10-20T07:49:11.376Z,9.00
2022-10-20T07:51:44.003Z,9.11
2022-10-20T07:54:11.986Z,8.98
2022-10-20T07:56:41.515Z,9.07
2022-10-20T07:59:09.166Z,9.06
2022-10-20T08:01:35.764Z,9.10
2022-10-20T08:04:02.217Z,9.24
2022-10-20T08:06:28.579Z,9.39
2022-10-20T08:08:55.485Z,9.39
2022-10-20T08:11:22.137Z,9.38
2022-10-20T08:13:48.526Z,9.47
2022-10-20T08:16:16.554Z,9.63
2022-10-20T08:18:50.071Z,9.73
2022-10-20T08:21:19.354Z,9.81
2022-10-20T08:23:47.658Z,9.89
2022-10-20T08:26:18.348Z,9.99
2022-10-20T08:28:44.802Z,10.18
2022-10-20T08:31:11.273Z,10.15
2022-10-20T08:33:37.801Z,10.26
2022-10-20T08:36:06.308Z,10.36
2022-10-20T08:38:33.050Z,10.18
2022-10-20T08:41:00.385Z,10.28
2022-10-20T08:43:28.059Z,10.35
2022-10-20T08:45:54.433Z,10.55
2022-10-20T08:48:23.373Z,10.80
2022-10-20T08:50:51.699Z,11.04
2022-10-20T08:53:19.991Z,11.17
2022-10-20T08:55:46.843Z,11.06
2022-10-20T08:58:19.506Z,11.17
2022-10-20T09:00:46.537Z,11.30
2022-10-20T09:03:18.940Z,11.54
2022-10-20T09:05:47.385Z,11.59
2022-10-20T09:08:13.827Z,11.49
2022-10-20T09:10:45.515Z,11.62
2022-10-20T09:13:17.467Z,11.81
2022-10-20T09:15:43.887Z,11.94
2022-10-20T09:18:12.264Z,12.07
2022-10-20T09:20:44.786Z,12.34
2022-10-20T09:23:35.347Z,12.38
2022-10-20T09:26:01.278Z,12.26
2022-10-20T09:28:34.217Z,12.26
2022-10-20T09:31:32.917Z,12.57
2022-10-20T09:33:59.802Z,12.66
2022-10-20T09:36:34.184Z,12.79
2022-10-20T09:39:01.296Z,13.02
2022-10-20T09:41:32.108Z,13.11
2022-10-20T09:44:02.565Z,13.18
2022-10-20T09:46:32.561Z,13.60
2022-10-20T09:48:59.283Z,13.80
2022-10-20T09:51:30.018Z,13.47
2022-10-20T09:54:05.106Z,13.54
2022-10-20T09:56:38.187Z,13.51
2022-10-20T09:59:07.900Z,13.43
2022-10-20T10:01:34.348Z,13.57
2022-10-20T10:04:01.981Z,13.68
2022-10-20T10:06:43.489Z,14.04
2022-10-20T10:09:42.432Z,14.04
2022-10-20T10:12:11.782Z,13.99
2022-10-20T10:14:48.162Z,13.87
2022-10-20T10:17:32.492Z,13.84
2022-10-20T10:19:59.807Z,14.01
2022-10-20T10:22:26.483Z,14.05
2022-10-20T10:24:54.826Z,14.14
2022-10-20T10:27:32.683Z,14.12
2022-10-20T10:30:24.074Z,14.20
2022-10-20T10:32:50.441Z,14.49
2022-10-20T10:35:24.136Z,14.52
2022-10-20T10:37:50.787Z,14.68
2022-10-20T10:40:19.725Z,14.59
2022-10-20T10:43:00.895Z,14.59
2022-10-20T10:45:42.509Z,14.63
2022-10-20T10:48:35.000Z,14.63
2022-10-20T10:51:09.060Z,14.50
2022-10-20T10:54:00.532Z,14.51
2022-10-20T10:56:32.736Z,14.38
2022-10-20T10:58:59.412Z,14.42
2022-10-20T11:01:34.495Z,14.42
2022-10-20T11:04:31.857Z,14.36
2022-10-20T11:07:20.738Z,14.58
2022-10-20T11:09:55.779Z,14.62
2022-10-20T11:12:42.147Z,14.85
2022-10-20T11:15:14.539Z,14.95
2022-10-20T11:18:05.802Z,15.10
2022-10-20T11:20:53.189Z,15.08
2022-10-20T11:23:37.739Z,15.27
2022-10-20T11:26:07.134Z,15.29
2022-10-20T11:28:44.003Z,15.27
2022-10-20T11:31:39.833Z,15.36
2022-10-20T11:34:11.857Z,15.22
2022-10-20T11:36:41.678Z,15.33
2022-10-20T11:39:25.247Z,15.28
2022-10-20T11:41:54.309Z,15.44
2022-10-20T11:44:40.749Z,15.39
2022-10-20T11:47:12.102Z,15.26
2022-10-20T11:49:40.099Z,15.24
2022-10-20T11:52:44.553Z,15.12
2022-10-20T11:55:33.161Z,14.98
2022-10-20T11:58:20.793Z,14.83
2022-10-20T12:00:59.670Z,14.84
2022-10-20T12:03:51.670Z,14.74
2022-10-20T12:06:25.529Z,14.66
2022-10-20T12:09:10.703Z,14.63
2022-10-20T12:11:58.759Z,14.62
2022-10-20T12:14:49.883Z,14.58
2022-10-20T12:17:19.674Z,14.61
2022-10-20T12:19:50.389Z,14.64
2022-10-20T12:22:16.654Z,14.78
2022-10-20T12:25:02.905Z,14.74
2022-10-20T12:27:29.977Z,14.76
2022-10-20T12:30:37.973Z,14.73
2022-10-20T12:33:21.328Z,14.76
2022-10-20T12:35:59.753Z,14.67
2022-10-20T12:38:26.721Z,14.67
2022-10-20T12:40:57.827Z,14.67
2022-10-20T12:43:33.487Z,14.71
2022-10-20T12:46:11.722Z,14.76
2022-10-20T12:48:43.490Z,14.85
2022-10-20T12:51:20.040Z,14.86
2022-10-20T12:53:52.398Z,14.72
2022-10-20T12:56:20.042Z,14.73
2022-10-20T12:59:24.713Z,14.85
2022-10-20T13:02:09.527Z,14.77
2022-10-20T13:04:58.048Z,14.82
2022-10-20T13:07:45.854Z,14.80
2022-10-20T13:10:28.822Z,14.74
2022-10-20T13:13:00.859Z,14.71
2022-10-20T13:15:42.360Z,14.77
2022-10-20T13:18:11.822Z,14.71
2022-10-20T13:20:45.789Z,14.62
2022-10-20T13:23:14.144Z,14.50
2022-10-20T13:25:44.972Z,14.32
2022-10-20T13:28:18.568Z,14.43
2022-10-20T13:30:54.160Z,14.48
2022-10-20T13:33:38.680Z,14.44
2022-10-20T13:36:42.469Z,14.42
2022-10-20T13:39:26.681Z,14.38
2022-10-20T13:41:59.009Z,14.28
2022-10-20T13:45:02.494Z,14.25
2022-10-20T13:47:39.514Z,14.36
2022-10-20T13:52:49.130Z,14.44
2022-10-20T13:55:22.378Z,14.46
2022-10-20T13:57:57.173Z,14.55
2022-10-20T14:00:31.407Z,14.52
2022-10-20T14:03:01.768Z,14.54
2022-10-20T14:05:31.389Z,14.57
2022-10-20T14:08:03.225Z,14.62
2022-10-20T14:10:47.391Z,14.66
2022-10-20T14:13:17.166Z,14.73
2022-10-20T14:15:50.069Z,14.77
2022-10-20T14:18:24.392Z,14.79
2022-10-20T14:21:03.026Z,14.80
2022-10-20T14:23:35.080Z,14.91
2022-10-20T14:26:03.756Z,14.93
2022-10-20T14:28:33.186Z,14.95
2022-10-20T14:30:59.963Z,15.02
2022-10-20T14:33:26.564Z,15.00
2022-10-20T14:35:55.369Z,14.89
2022-10-20T14:38:29.658Z,14.86
2022-10-20T14:40:57.504Z,14.89
2022-10-20T14:43:24.848Z,14.98
2022-10-20T14:45:56.573Z,14.93
2022-10-20T14:48:23.204Z,15.15
2022-10-20T14:50:49.812Z,15.31
2022-10-20T14:53:22.207Z,15.42
2022-10-20T14:55:48.597Z,15.62
2022-10-20T14:58:58.225Z,15.67
2022-10-20T15:01:31.856Z,15.97
2022-10-20T15:04:10.351Z,16.10
2022-10-20T15:06:36.946Z,16.29
2022-10-20T15:09:03.702Z,16.56
2022-10-20T15:11:32.178Z,16.76
2022-10-20T15:13:59.667Z,17.27
2022-10-20T15:16:35.682Z,17.30
2022-10-20T15:19:23.560Z,17.37
2022-10-20T15:22:01.614Z,17.27
2022-10-20T15:24:28.806Z,17.38
2022-10-20T15:26:56.161Z,17.31
2022-10-20T15:29:22.595Z,16.84
2022-10-20T15:31:49.009Z,16.74
2022-10-20T15:34:15.462Z,16.45
2022-10-20T15:36:42.406Z,16.33
2022-10-20T15:39:09.367Z,16.02
2022-10-20T15:41:36.563Z,15.95
2022-10-20T15:44:23.287Z,15.87
2022-10-20T15:46:53.423Z,15.66
2022-10-20T15:49:19.890Z,15.47
2022-10-20T15:51:47.512Z,15.45
2022-10-20T15:54:19.727Z,15.47
2022-10-20T15:56:46.003Z,15.35
2022-10-20T15:59:12.460Z,15.35
2022-10-20T16:01:38.911Z,15.34
2022-10-20T16:04:23.069Z,15.08
2022-10-20T16:06:52.460Z,15.14
2022-10-20T16:09:23.086Z,15.06
2022-10-20T16:11:49.900Z,15.12
2022-10-20T16:14:16.330Z,15.12
2022-10-20T16:16:44.869Z,15.16
2022-10-20T16:19:11.257Z,15.08
2022-10-20T16:21:37.665Z,15.02
2022-10-20T16:24:04.969Z,14.94
2022-10-20T16:26:31.333Z,14.93
2022-10-20T16:28:57.729Z,14.91
2022-10-20T16:31:24.144Z,14.89
2022-10-20T16:33:50.568Z,14.94
2022-10-20T16:36:17.828Z,14.91
2022-10-20T16:38:44.303Z,14.82
2022-10-20T16:41:13.463Z,14.66
2022-10-20T16:43:41.676Z,14.58
2022-10-20T16:46:08.666Z,14.63
2022-10-20T16:48:37.656Z,14.69
2022-10-20T16:51:09.659Z,14.63
2022-10-20T16:53:36.751Z,14.66
2022-10-20T16:56:03.574Z,14.61
2022-10-20T16:58:29.957Z,14.63
2022-10-20T17:01:04.323Z,14.60
2022-10-20T17:03:31.078Z,14.47
2022-10-20T17:05:59.008Z,14.51
2022-10-20T17:08:25.997Z,14.50
2022-10-20T17:10:57.437Z,14.49
2022-10-20T17:13:24.557Z,14.47
2022-10-20T17:15:51.077Z,14.54
2022-10-20T17:18:17.789Z,14.46
2022-10-20T17:20:44.144Z,14.55
2022-10-20T17:23:10.642Z,14.49
2022-10-20T17:25:37.417Z,14.48
2022-10-20T17:28:04.000Z,14.45
2022-10-20T17:30:30.445Z,14.39
2022-10-20T17:32:56.860Z,14.32
2022-10-20T17:35:23.248Z,14.41
2022-10-20T17:37:49.643Z,14.39
2022-10-20T17:42:47.557Z,14.36
2022-10-20T17:45:14.093Z,14.47
2022-10-20T17:47:40.458Z,14.45
2022-10-20T17:52:38.937Z,14.39
2022-10-20T17:55:06.141Z,14.38
2022-10-20T17:57:32.514Z,14.31
2022-10-20T18:00:01.487Z,14.44
2022-10-20T18:02:29.603Z,14.45
2022-10-20T18:04:55.982Z,14.39
2022-10-20T18:07:22.604Z,14.38
2022-10-20T18:09:49.109Z,14.31
2022-10-20T18:12:16.016Z,14.34
2022-10-20T18:14:42.463Z,14.29
2022-10-20T18:17:08.837Z,14.29
2022-10-20T18:19:35.237Z,14.28
2022-10-20T18:22:01.825Z,14.26
2022-10-20T18:24:28.238Z,14.22
2022-10-20T18:26:54.607Z,14.18
2022-10-20T18:29:21.080Z,14.19
2022-10-20T18:31:47.981Z,14.17
2022-10-20T18:34:17.263Z,14.24
2022-10-20T18:36:45.864Z,14.20
2022-10-20T18:39:13.446Z,14.22
2022-10-20T18:41:40.967Z,14.15
2022-10-20T18:44:11.042Z,14.33
2022-10-20T18:46:37.783Z,14.37
2022-10-20T18:49:05.620Z,14.39
2022-10-20T18:51:32.203Z,14.42
2022-10-20T18:53:59.991Z,14.35
2022-10-20T18:56:28.233Z,14.48
2022-10-20T18:59:00.190Z,14.49
2022-10-20T19:01:32.771Z,14.47
2022-10-20T19:04:00.275Z,14.53
2022-10-20T19:06:29.247Z,14.36
2022-10-20T19:08:58.111Z,14.42
2022-10-20T19:11:27.311Z,14.33
2022-10-20T19:13:53.815Z,14.49
2022-10-20T19:16:23.370Z,14.48
2022-10-20T19:18:52.221Z,14.57
2022-10-20T19:23:53.285Z,14.62
2022-10-20T19:26:31.160Z,14.65
2022-10-20T19:29:09.569Z,14.63
2022-10-20T19:31:44.548Z,14.70
2022-10-20T19:34:14.628Z,14.68
2022-10-20T19:36:41.137Z,14.76
2022-10-20T19:39:09.382Z,14.69
2022-10-20T19:41:36.213Z,14.70
2022-10-20T19:44:03.229Z,14.72
2022-10-20T19:46:29.608Z,14.72
2022-10-20T19:48:57.235Z,14.67
2022-10-20T19:51:23.738Z,14.68
2022-10-20T19:53:50.256Z,14.69
2022-10-20T19:56:17.248Z,14.63
2022-10-20T19:58:46.493Z,14.59
2022-10-20T20:01:13.513Z,14.59
2022-10-20T20:03:39.939Z,14.56
2022-10-20T20:06:10.557Z,14.67
2022-10-20T20:08:37.252Z,14.44
2022-10-20T20:11:05.119Z,14.42
2022-10-20T20:13:31.861Z,14.32
2022-10-20T20:15:58.284Z,14.21
2022-10-20T20:18:24.775Z,14.19
2022-10-20T20:20:51.150Z,14.24
2022-10-20T20:23:22.494Z,14.23
2022-10-20T20:25:52.268Z,14.32
2022-10-20T20:28:19.086Z,14.46
2022-10-20T20:30:45.638Z,14.61
2022-10-20T20:33:12.389Z,14.70
2022-10-20T20:35:38.755Z,14.57
2022-10-20T20:38:05.115Z,14.67
2022-10-20T20:40:31.505Z,14.51
2022-10-20T20:42:57.862Z,14.70
2022-10-20T20:45:24.242Z,14.64
2022-10-20T20:47:50.656Z,14.67
2022-10-20T20:50:17.113Z,14.60
2022-10-20T20:52:43.521Z,14.56
2022-10-20T20:55:09.932Z,14.55
2022-10-20T20:57:36.577Z,14.54
2022-10-20T21:00:03.674Z,14.53
2022-10-20T21:02:30.074Z,14.65
2022-10-20T21:04:56.463Z,14.67
2022-10-20T21:07:22.825Z,14.68
2022-10-20T21:09:49.213Z,14.43
2022-10-20T21:12:15.594Z,14.60
2022-10-20T21:14:41.976Z,14.63
2022-10-20T21:17:08.339Z,14.72
2022-10-20T21:19:35.686Z,14.89
2022-10-20T21:22:02.030Z,14.93
2022-10-20T21:24:28.484Z,14.85
2022-10-20T21:26:54.944Z,14.94
2022-10-20T21:29:21.570Z,15.02
2022-10-20T21:31:47.954Z,14.98
2022-10-20T21:34:14.417Z,14.95
2022-10-20T21:36:40.903Z,14.89
2022-10-20T21:39:11.276Z,14.94
2022-10-20T21:41:38.259Z,14.91
2022-10-20T21:44:05.965Z,15.02
2022-10-20T21:46:41.995Z,15.04
2022-10-20T21:49:11.744Z,15.13
2022-10-20T21:51:43.221Z,14.97
2022-10-20T21:54:12.737Z,15.05
2022-10-20T21:56:41.116Z,14.68
2022-10-20T21:59:08.730Z,14.27
2022-10-20T22:01:35.133Z,13.94
2022-10-20T22:04:01.623Z,13.77
2022-10-20T22:06:28.072Z,13.61
2022-10-20T22:08:57.547Z,13.58
2022-10-20T22:11:36.451Z,13.37
2022-10-20T22:14:03.813Z,13.26
2022-10-20T22:16:33.613Z,13.20
2022-10-20T22:19:03.211Z,13.04
2022-10-20T22:21:30.211Z,13.10
2022-10-20T22:23:57.513Z,13.02
2022-10-20T22:26:26.571Z,13.01
2022-10-20T22:28:53.004Z,13.00
2022-10-20T22:31:19.475Z,13.11
2022-10-20T22:33:45.841Z,13.07
2022-10-20T22:36:12.297Z,13.09
2022-10-20T22:38:38.671Z,13.08
2022-10-20T22:41:05.139Z,13.44
2022-10-20T22:43:31.850Z,13.46
2022-10-20T22:45:58.394Z,13.61
2022-10-20T22:48:25.171Z,13.67
2022-10-20T22:50:51.622Z,13.68
2022-10-20T22:53:18.025Z,14.07
2022-10-20T22:55:44.696Z,14.34
2022-10-20T22:58:11.083Z,14.35
2022-10-20T23:00:41.137Z,14.46
2022-10-20T23:03:07.882Z,14.81
2022-10-20T23:05:34.350Z,15.21
2022-10-20T23:08:00.721Z,15.53
2022-10-20T23:10:27.349Z,15.73
2022-10-20T23:12:53.784Z,15.88
2022-10-20T23:15:20.242Z,15.96
2022-10-20T23:17:46.981Z,15.98
2022-10-20T23:20:13.411Z,16.04
2022-10-20T23:22:39.832Z,16.05
2022-10-20T23:25:06.569Z,16.07
2022-10-20T23:27:34.172Z,15.99
2022-10-20T23:30:00.577Z,16.13
2022-10-20T23:32:27.196Z,16.08
2022-10-20T23:34:53.694Z,16.15
2022-10-20T23:37:21.689Z,16.10
2022-10-20T23:39:48.036Z,16.11
2022-10-20T23:42:14.447Z,16.03
2022-10-20T23:44:40.938Z,16.06
2022-10-20T23:47:07.319Z,16.13
2022-10-20T23:49:33.746Z,16.14
2022-10-20T23:52:00.125Z,15.98
2022-10-20T23:54:26.483Z,15.88
2022-10-20T23:56:52.904Z,15.77
2022-10-20T23:59:19.267Z,15.69
